Time;durP1;ratioP1;P1;durP2;ratioP2;P2;SDS_P1;SDS_P2;PMS_P1;PMS_P2;Temp;Humidity;BMP_temperature;BMP_pressure;BME280_temperature;BME280_humidity;BME280_pressure;Samples;Min_cycle;Max_cycle;Signal;HPM_P1;HPM_P2
2022/10/18 00:00:14;;;;;;;;;15.00;15.00;;;;;;;;5119876;27;45377;-69
2022/10/18 00:02:39;;;;;;;;;13.25;13.25;;;;;;;;5118341;27;45874;-74
2022/10/18 00:05:05;;;;;;;;;12.50;12.50;;;;;;;;5122324;27;45610;-75
2022/10/18 00:07:30;;;;;;;;;14.00;14.00;;;;;;;;5121620;27;45881;-70
2022/10/18 00:09:55;;;;;;;;;14.25;14.25;;;;;;;;5120699;27;45527;-73
2022/10/18 00:12:20;;;;;;;;;17.25;16.75;;;;;;;;5121785;27;45388;-73
2022/10/18 00:14:47;;;;;;;;;17.00;17.00;;;;;;;;5120395;27;45320;-73
2022/10/18 00:17:12;;;;;;;;;16.25;16.25;;;;;;;;5119590;27;45409;-73
2022/10/18 00:19:38;;;;;;;;;16.25;16.25;;;;;;;;5120203;27;45441;-72
2022/10/18 00:22:03;;;;;;;;;18.00;18.00;;;;;;;;5119844;27;45384;-76
2022/10/18 00:24:28;;;;;;;;;17.50;17.50;;;;;;;;5120871;27;45519;-75
2022/10/18 00:26:53;;;;;;;;;17.75;17.75;;;;;;;;5121042;27;45997;-70
2022/10/18 00:29:19;;;;;;;;;14.50;14.50;;;;;;;;5120121;27;44941;-72
2022/10/18 00:31:44;;;;;;;;;16.25;16.25;;;;;;;;5121059;27;45407;-74
2022/10/18 00:34:13;;;;;;;;;13.50;13.50;;;;;;;;5125253;27;45408;-72
2022/10/18 00:36:39;;;;;;;;;16.75;16.75;;;;;;;;5123187;27;46368;-72
2022/10/18 00:39:05;;;;;;;;;15.00;15.00;;;;;;;;5121753;27;45379;-76
2022/10/18 00:41:31;;;;;;;;;15.00;15.00;;;;;;;;5121131;27;45339;-72
2022/10/18 00:43:58;;;;;;;;;13.00;13.00;;;;;;;;5122611;27;45321;-70
2022/10/18 00:46:25;;;;;;;;;16.25;16.25;;;;;;;;5120931;27;45461;-76
2022/10/18 00:48:51;;;;;;;;;17.00;17.00;;;;;;;;5126300;27;45438;-77
2022/10/18 00:51:18;;;;;;;;;18.75;18.75;;;;;;;;5120484;27;45305;-75
2022/10/18 00:53:44;;;;;;;;;20.00;20.00;;;;;;;;5118997;27;45336;-77
2022/10/18 00:56:09;;;;;;;;;17.25;17.25;;;;;;;;5121492;27;45379;-75
2022/10/18 00:58:34;;;;;;;;;11.75;11.75;;;;;;;;5121888;27;45238;-77
2022/10/18 01:00:59;;;;;;;;;16.25;16.25;;;;;;;;5120945;27;45198;-77
2022/10/18 01:03:25;;;;;;;;;15.75;15.75;;;;;;;;5121018;27;45156;-75
2022/10/18 01:05:50;;;;;;;;;14.00;14.00;;;;;;;;5121961;27;45328;-75
2022/10/18 01:08:15;;;;;;;;;13.75;13.75;;;;;;;;5120687;27;45485;-74
2022/10/18 01:10:40;;;;;;;;;15.50;15.50;;;;;;;;5122638;27;45590;-76
2022/10/18 01:13:12;;;;;;;;;16.00;16.00;;;;;;;;5117826;27;45401;-69
2022/10/18 01:15:42;;;;;;;;;15.25;15.25;;;;;;;;5117423;27;45253;-70
2022/10/18 01:18:12;;;;;;;;;15.50;15.50;;;;;;;;5116968;27;45300;-71
2022/10/18 01:20:43;;;;;;;;;13.75;13.75;;;;;;;;5117668;27;45183;-78
2022/10/18 01:23:19;;;;;;;;;15.25;15.25;;;;;;;;5116717;27;45352;-69
2022/10/18 01:25:44;;;;;;;;;15.75;15.75;;;;;;;;5116905;27;45337;-70
2022/10/18 01:28:12;;;;;;;;;14.00;14.00;;;;;;;;5116282;27;45473;-70
2022/10/18 01:30:40;;;;;;;;;15.25;15.25;;;;;;;;5123286;27;45265;-73
2022/10/18 01:33:11;;;;;;;;;14.75;14.75;;;;;;;;5119044;27;45623;-70
2022/10/18 01:35:39;;;;;;;;;10.50;10.50;;;;;;;;5116912;27;46983;-71
2022/10/18 01:38:10;;;;;;;;;13.50;13.50;;;;;;;;5117938;27;45206;-71
2022/10/18 01:40:37;;;;;;;;;18.25;18.25;;;;;;;;5117560;27;45435;-68
2022/10/18 01:43:03;;;;;;;;;16.00;16.00;;;;;;;;5117247;27;45312;-68
2022/10/18 01:45:30;;;;;;;;;16.25;16.25;;;;;;;;5115285;27;45130;-77
2022/10/18 01:47:56;;;;;;;;;15.75;15.75;;;;;;;;5117781;27;45636;-71
2022/10/18 01:50:28;;;;;;;;;18.00;18.00;;;;;;;;5117795;27;45315;-70
2022/10/18 01:52:54;;;;;;;;;19.25;19.25;;;;;;;;5121541;27;45232;-71
2022/10/18 01:55:23;;;;;;;;;18.50;17.00;;;;;;;;5122688;27;47096;-74
2022/10/18 01:58:02;;;;;;;;;21.00;21.00;;;;;;;;5120757;27;45329;-70
2022/10/18 02:00:39;;;;;;;;;16.50;16.50;;;;;;;;5130571;27;45124;-74
2022/10/18 02:03:07;;;;;;;;;18.00;18.00;;;;;;;;5118501;27;45638;-69
2022/10/18 02:05:45;;;;;;;;;18.25;18.25;;;;;;;;5118008;27;46421;-72
2022/10/18 02:08:13;;;;;;;;;16.75;16.75;;;;;;;;5121981;27;45475;-75
2022/10/18 02:10:49;;;;;;;;;17.75;17.75;;;;;;;;5121358;27;45294;-72
2022/10/18 02:13:16;;;;;;;;;17.50;17.50;;;;;;;;5121685;27;45220;-74
2022/10/18 02:15:44;;;;;;;;;19.00;19.00;;;;;;;;5121039;27;47257;-75
2022/10/18 02:18:12;;;;;;;;;17.25;17.25;;;;;;;;5122028;27;45500;-77
2022/10/18 02:20:37;;;;;;;;;18.75;18.75;;;;;;;;5121746;27;45432;-73
2022/10/18 02:23:05;;;;;;;;;20.25;20.25;;;;;;;;5121409;27;45190;-72
2022/10/18 02:25:31;;;;;;;;;18.25;18.25;;;;;;;;5121090;27;45500;-74
2022/10/18 02:27:57;;;;;;;;;20.50;20.50;;;;;;;;5119181;27;46056;-70
2022/10/18 02:30:27;;;;;;;;;20.50;20.50;;;;;;;;5120903;27;45432;-70
2022/10/18 02:33:02;;;;;;;;;19.50;19.50;;;;;;;;5120642;27;45291;-68
2022/10/18 02:35:34;;;;;;;;;20.25;19.75;;;;;;;;5120855;27;45388;-75
2022/10/18 02:38:01;;;;;;;;;19.75;19.75;;;;;;;;5121531;27;45394;-77
2022/10/18 02:40:26;;;;;;;;;27.25;27.25;;;;;;;;5123412;27;45390;-78
2022/10/18 02:42:55;;;;;;;;;25.25;25.25;;;;;;;;5121711;27;45226;-70
2022/10/18 02:45:20;;;;;;;;;25.25;25.25;;;;;;;;5120089;27;45937;-71
2022/10/18 02:47:46;;;;;;;;;24.50;24.50;;;;;;;;5120925;27;45393;-73
2022/10/18 02:50:14;;;;;;;;;24.50;24.00;;;;;;;;5121521;27;45450;-74
2022/10/18 02:52:39;;;;;;;;;28.25;27.25;;;;;;;;5120672;27;45493;-74
2022/10/18 02:55:05;;;;;;;;;28.75;28.75;;;;;;;;5131696;27;46185;-68
2022/10/18 02:57:30;;;;;;;;;26.25;26.25;;;;;;;;5124883;27;45343;-77
2022/10/18 02:59:55;;;;;;;;;26.50;26.50;;;;;;;;5121118;27;45308;-76
2022/10/18 03:02:21;;;;;;;;;25.25;25.25;;;;;;;;5121768;27;45409;-72
2022/10/18 03:04:46;;;;;;;;;19.75;18.75;;;;;;;;5120891;27;46107;-76
2022/10/18 03:07:11;;;;;;;;;25.00;24.25;;;;;;;;5119854;27;45294;-70
2022/10/18 03:09:36;;;;;;;;;25.75;25.75;;;;;;;;5120242;27;45345;-72
2022/10/18 03:12:02;;;;;;;;;29.25;29.25;;;;;;;;5120362;27;45496;-72
2022/10/18 03:14:27;;;;;;;;;26.25;26.25;;;;;;;;5120002;27;46200;-72
2022/10/18 03:16:52;;;;;;;;;24.50;24.50;;;;;;;;5119839;27;45741;-77
2022/10/18 03:19:17;;;;;;;;;30.00;29.50;;;;;;;;5120657;27;45211;-77
2022/10/18 03:21:42;;;;;;;;;27.75;26.75;;;;;;;;5120425;27;45608;-76
2022/10/18 03:24:08;;;;;;;;;26.00;25.50;;;;;;;;5120656;27;45674;-77
2022/10/18 03:26:33;;;;;;;;;22.50;22.50;;;;;;;;5122544;27;46034;-66
2022/10/18 03:28:58;;;;;;;;;25.25;25.25;;;;;;;;5123603;27;45256;-69
2022/10/18 03:31:23;;;;;;;;;19.50;19.50;;;;;;;;5119783;27;45946;-76
2022/10/18 03:33:48;;;;;;;;;22.25;22.25;;;;;;;;5122363;27;46061;-70
2022/10/18 03:36:14;;;;;;;;;22.25;22.25;;;;;;;;5127247;27;45347;-71
2022/10/18 03:38:39;;;;;;;;;17.75;17.75;;;;;;;;5122708;27;45314;-75
2022/10/18 03:41:05;;;;;;;;;19.50;19.50;;;;;;;;5119629;27;45135;-69
2022/10/18 03:43:30;;;;;;;;;20.00;19.25;;;;;;;;5117899;27;46771;-68
2022/10/18 03:45:55;;;;;;;;;22.25;22.25;;;;;;;;5119721;27;45383;-72
2022/10/18 03:48:20;;;;;;;;;20.00;20.00;;;;;;;;5119235;27;45543;-68
2022/10/18 03:50:46;;;;;;;;;21.25;21.25;;;;;;;;5120154;27;45729;-70
2022/10/18 03:53:11;;;;;;;;;20.00;20.00;;;;;;;;5119192;27;46025;-72
2022/10/18 03:55:36;;;;;;;;;23.00;23.00;;;;;;;;5118690;27;45422;-72
2022/10/18 03:58:02;;;;;;;;;25.00;24.00;;;;;;;;5119772;27;45379;-71
2022/10/18 04:00:27;;;;;;;;;26.50;26.50;;;;;;;;5119903;27;45501;-71
2022/10/18 04:02:52;;;;;;;;;22.25;22.25;;;;;;;;5119061;27;46004;-70
2022/10/18 04:05:18;;;;;;;;;22.00;22.00;;;;;;;;5119503;27;45440;-69
2022/10/18 04:07:43;;;;;;;;;24.00;23.50;;;;;;;;5120588;27;45251;-76
2022/10/18 04:10:08;;;;;;;;;22.25;22.25;;;;;;;;5121511;27;45400;-75
2022/10/18 04:12:33;;;;;;;;;18.50;18.50;;;;;;;;5121341;27;46091;-76
2022/10/18 04:14:58;;;;;;;;;21.25;21.25;;;;;;;;5121731;27;45329;-73
2022/10/18 04:17:24;;;;;;;;;23.50;23.50;;;;;;;;5122226;27;45222;-75
2022/10/18 04:19:49;;;;;;;;;21.25;21.25;;;;;;;;5130281;27;45461;-70
2022/10/18 04:22:14;;;;;;;;;21.25;21.25;;;;;;;;5125690;27;45243;-72
2022/10/18 04:24:39;;;;;;;;;22.00;22.00;;;;;;;;5121244;27;45471;-74
2022/10/18 04:27:05;;;;;;;;;19.75;19.75;;;;;;;;5122054;27;45417;-71
2022/10/18 04:29:30;;;;;;;;;22.25;22.25;;;;;;;;5121088;27;45320;-69
2022/10/18 04:31:56;;;;;;;;;21.00;21.00;;;;;;;;5119811;27;46395;-72
2022/10/18 04:34:21;;;;;;;;;22.25;22.25;;;;;;;;5118072;27;45214;-74
2022/10/18 04:36:46;;;;;;;;;22.75;22.75;;;;;;;;5120094;27;45364;-75
2022/10/18 04:39:11;;;;;;;;;29.25;29.00;;;;;;;;5120857;27;45301;-73
2022/10/18 04:41:36;;;;;;;;;25.25;25.25;;;;;;;;5120765;27;45469;-76
2022/10/18 04:44:02;;;;;;;;;21.00;21.00;;;;;;;;5119764;27;45326;-76
2022/10/18 04:46:27;;;;;;;;;23.00;23.00;;;;;;;;5119841;27;45270;-74
2022/10/18 04:48:52;;;;;;;;;26.00;26.00;;;;;;;;5119011;27;45293;-76
2022/10/18 04:51:17;;;;;;;;;21.00;21.00;;;;;;;;5119005;27;45401;-74
2022/10/18 04:53:42;;;;;;;;;21.25;21.25;;;;;;;;5118961;27;45330;-71
2022/10/18 04:56:08;;;;;;;;;22.25;22.25;;;;;;;;5121483;27;45323;-68
2022/10/18 04:58:33;;;;;;;;;22.00;22.00;;;;;;;;5122274;27;45548;-71
2022/10/18 05:00:58;;;;;;;;;18.25;18.25;;;;;;;;5119210;27;45246;-73
2022/10/18 05:03:23;;;;;;;;;20.25;20.25;;;;;;;;5118639;27;45241;-72
2022/10/18 05:05:49;;;;;;;;;17.75;17.75;;;;;;;;5119188;27;45265;-70
2022/10/18 05:08:14;;;;;;;;;19.00;19.00;;;;;;;;5118315;27;45287;-77
2022/10/18 05:10:39;;;;;;;;;18.25;18.25;;;;;;;;5118435;27;46581;-71
2022/10/18 05:13:04;;;;;;;;;18.75;18.75;;;;;;;;5118070;27;45266;-70
2022/10/18 05:15:30;;;;;;;;;21.50;20.75;;;;;;;;5116584;27;45280;-74
2022/10/18 05:17:55;;;;;;;;;17.75;17.75;;;;;;;;5126245;27;45495;-78
2022/10/18 05:20:20;;;;;;;;;22.25;22.25;;;;;;;;5129665;27;45419;-74
2022/10/18 05:22:45;;;;;;;;;20.00;20.00;;;;;;;;5126507;27;45147;-76
2022/10/18 05:25:10;;;;;;;;;20.25;20.25;;;;;;;;5119084;27;45423;-76
2022/10/18 05:27:36;;;;;;;;;20.00;20.00;;;;;;;;5126599;27;45294;-72
2022/10/18 05:30:01;;;;;;;;;15.75;15.75;;;;;;;;5128772;27;45271;-74
2022/10/18 05:32:26;;;;;;;;;20.25;20.25;;;;;;;;5125296;27;45229;-69
2022/10/18 05:34:51;;;;;;;;;18.25;18.25;;;;;;;;5125296;27;45377;-72
2022/10/18 05:37:17;;;;;;;;;17.50;17.50;;;;;;;;5127125;27;45403;-76
2022/10/18 05:39:42;;;;;;;;;19.25;19.25;;;;;;;;5119721;27;45388;-72
2022/10/18 05:42:08;;;;;;;;;19.00;19.00;;;;;;;;5123158;27;45202;-72
2022/10/18 05:44:33;;;;;;;;;15.50;15.50;;;;;;;;5127346;27;45305;-74
2022/10/18 05:46:58;;;;;;;;;16.00;16.00;;;;;;;;5126255;27;45376;-72
2022/10/18 05:49:23;;;;;;;;;15.50;15.50;;;;;;;;5124824;27;47094;-72
2022/10/18 05:51:48;;;;;;;;;15.25;15.25;;;;;;;;5125218;27;45348;-71
2022/10/18 05:54:14;;;;;;;;;19.50;18.25;;;;;;;;5122155;27;45399;-69
2022/10/18 05:56:39;;;;;;;;;25.25;25.25;;;;;;;;5121855;27;45465;-72
2022/10/18 05:59:09;;;;;;;;;20.25;20.25;;;;;;;;5108426;27;46412;-73
2022/10/18 06:01:34;;;;;;;;;18.50;18.50;;;;;;;;5119856;27;46226;-75
2022/10/18 06:03:59;;;;;;;;;14.75;14.75;;;;;;;;5113710;27;45462;-75
2022/10/18 06:06:25;;;;;;;;;17.75;17.75;;;;;;;;5094432;27;45345;-73
2022/10/18 06:08:50;;;;;;;;;17.75;17.75;;;;;;;;5099484;27;46311;-80
2022/10/18 06:11:16;;;;;;;;;21.00;21.00;;;;;;;;5099656;27;45399;-73
2022/10/18 06:13:49;;;;;;;;;17.50;17.50;;;;;;;;5099773;27;45374;-73
2022/10/18 06:16:15;;;;;;;;;17.75;17.75;;;;;;;;5100092;27;45467;-77
2022/10/18 06:18:40;;;;;;;;;18.75;18.75;;;;;;;;5099092;27;45650;-73
2022/10/18 06:21:06;;;;;;;;;27.25;26.25;;;;;;;;5095896;27;45249;-72
2022/10/18 06:23:31;;;;;;;;;19.25;19.25;;;;;;;;5088817;27;45444;-74
2022/10/18 06:25:57;;;;;;;;;17.50;17.50;;;;;;;;5085533;27;45387;-73
2022/10/18 06:28:22;;;;;;;;;18.50;18.50;;;;;;;;5098338;27;46332;-74
2022/10/18 06:30:47;;;;;;;;;20.75;20.75;;;;;;;;5099481;27;45349;-68
2022/10/18 06:33:13;;;;;;;;;18.25;18.25;;;;;;;;5086327;27;45480;-74
2022/10/18 06:35:38;;;;;;;;;23.50;23.50;;;;;;;;5079391;27;45385;-69
2022/10/18 06:38:05;;;;;;;;;18.50;18.50;;;;;;;;5091309;27;46254;-72
2022/10/18 06:40:36;;;;;;;;;20.50;20.50;;;;;;;;5077863;27;45474;-71
2022/10/18 06:43:01;;;;;;;;;18.75;18.75;;;;;;;;5079372;27;45370;-71
2022/10/18 06:45:26;;;;;;;;;17.00;17.00;;;;;;;;5078964;27;45310;-73
2022/10/18 06:47:52;;;;;;;;;19.75;19.75;;;;;;;;5078862;27;45541;-74
2022/10/18 06:50:17;;;;;;;;;19.25;19.25;;;;;;;;5077229;27;45499;-75
2022/10/18 06:52:42;;;;;;;;;17.25;17.25;;;;;;;;5076463;28;45378;-77
2022/10/18 06:55:08;;;;;;;;;17.50;17.50;;;;;;;;5078044;28;45377;-72
2022/10/18 06:57:33;;;;;;;;;17.00;17.00;;;;;;;;5077289;27;46600;-74
2022/10/18 06:59:58;;;;;;;;;18.50;18.50;;;;;;;;5077719;27;45370;-74
2022/10/18 07:02:23;;;;;;;;;19.00;19.00;;;;;;;;5084178;27;45374;-74
2022/10/18 07:04:49;;;;;;;;;17.00;17.00;;;;;;;;5078339;28;45253;-74
2022/10/18 07:07:14;;;;;;;;;15.00;15.00;;;;;;;;5078454;27;46123;-70
2022/10/18 07:09:39;;;;;;;;;15.25;15.00;;;;;;;;5085247;27;45400;-72
2022/10/18 07:12:05;;;;;;;;;14.50;14.50;;;;;;;;5082272;27;45964;-77
2022/10/18 07:14:30;;;;;;;;;14.00;14.00;;;;;;;;5078231;27;45387;-77
2022/10/18 07:16:57;;;;;;;;;14.75;14.75;;;;;;;;5078165;28;47114;-70
2022/10/18 07:19:22;;;;;;;;;13.75;13.75;;;;;;;;5078326;27;45480;-75
2022/10/18 07:21:47;;;;;;;;;14.00;14.00;;;;;;;;5064686;28;45266;-72
2022/10/18 07:24:13;;;;;;;;;16.25;16.25;;;;;;;;5057832;28;45627;-70
2022/10/18 07:26:38;;;;;;;;;13.50;13.50;;;;;;;;5038944;28;47305;-74
2022/10/18 07:29:07;;;;;;;;;21.50;21.50;;;;;;;;5057442;28;45251;-72
2022/10/18 07:31:33;;;;;;;;;30.75;30.00;;;;;;;;5057690;28;45431;-76
2022/10/18 07:33:58;;;;;;;;;13.25;13.25;;;;;;;;5041043;28;45479;-73
2022/10/18 07:36:24;;;;;;;;;12.25;12.25;;;;;;;;5059685;28;46141;-73
2022/10/18 07:38:50;;;;;;;;;11.75;11.75;;;;;;;;5058662;28;45371;-68
2022/10/18 07:41:16;;;;;;;;;11.25;11.25;;;;;;;;5058102;28;45284;-72
2022/10/18 07:43:44;;;;;;;;;8.00;8.00;;;;;;;;5039560;28;45620;-70
2022/10/18 07:46:10;;;;;;;;;10.00;10.00;;;;;;;;5058603;28;47367;-73
2022/10/18 07:48:35;;;;;;;;;11.50;11.50;;;;;;;;5059865;28;45178;-72
2022/10/18 07:51:00;;;;;;;;;19.25;19.25;;;;;;;;5058482;28;45213;-69
2022/10/18 07:53:26;;;;;;;;;13.00;13.00;;;;;;;;5057395;28;45462;-70
2022/10/18 07:55:55;;;;;;;;;12.00;12.00;;;;;;;;5056725;28;45417;-70
2022/10/18 07:58:20;;;;;;;;;13.00;13.00;;;;;;;;5056903;28;45317;-70
2022/10/18 08:00:45;;;;;;;;;12.75;12.75;;;;;;;;5057515;28;45319;-77
2022/10/18 08:03:10;;;;;;;;;13.25;13.25;;;;;;;;5057580;28;45466;-71
2022/10/18 08:05:36;;;;;;;;;22.50;22.50;;;;;;;;5056372;28;45486;-74
2022/10/18 08:08:01;;;;;;;;;45.00;38.25;;;;;;;;5056612;28;45344;-72
2022/10/18 08:10:26;;;;;;;;;11.25;11.25;;;;;;;;5056791;28;45251;-77
2022/10/18 08:12:52;;;;;;;;;16.50;15.00;;;;;;;;5056907;28;45272;-71
2022/10/18 08:15:17;;;;;;;;;18.25;18.25;;;;;;;;5056937;28;45404;-71
2022/10/18 08:17:43;;;;;;;;;21.00;21.00;;;;;;;;5056531;28;45253;-70
2022/10/18 08:20:08;;;;;;;;;12.25;11.50;;;;;;;;5056561;28;45286;-72
2022/10/18 08:22:34;;;;;;;;;13.50;13.50;;;;;;;;5075503;28;45411;-73
2022/10/18 08:24:59;;;;;;;;;11.00;10.00;;;;;;;;5075036;28;47644;-71
2022/10/18 08:27:25;;;;;;;;;9.00;9.00;;;;;;;;5075166;28;45323;-72
2022/10/18 08:29:50;;;;;;;;;11.50;11.50;;;;;;;;5076615;27;45221;-72
2022/10/18 08:32:15;;;;;;;;;12.75;12.75;;;;;;;;5078870;27;45530;-73
2022/10/18 08:34:41;;;;;;;;;12.00;12.00;;;;;;;;5081568;27;45230;-76
2022/10/18 08:37:06;;;;;;;;;10.25;10.25;;;;;;;;5076813;27;45622;-71
2022/10/18 08:39:31;;;;;;;;;12.00;12.00;;;;;;;;5076704;27;45356;-71
2022/10/18 08:42:05;;;;;;;;;14.25;14.25;;;;;;;;5077191;27;45486;-71
2022/10/18 08:44:31;;;;;;;;;11.50;11.50;;;;;;;;5080211;27;46338;-74
2022/10/18 08:47:02;;;;;;;;;15.00;15.00;;;;;;;;5077499;27;45376;-73
2022/10/18 08:49:36;;;;;;;;;13.25;13.25;;;;;;;;5078501;27;45236;-71
2022/10/18 08:52:02;;;;;;;;;4.75;4.75;;;;;;;;5076973;27;45302;-72
2022/10/18 08:54:31;;;;;;;;;5.25;5.25;;;;;;;;5076190;27;46253;-74
2022/10/18 08:57:01;;;;;;;;;8.75;8.75;;;;;;;;5075612;27;45421;-72
2022/10/18 08:59:29;;;;;;;;;8.25;8.25;;;;;;;;5076360;27;45308;-70
2022/10/18 09:02:13;;;;;;;;;13.75;13.75;;;;;;;;5076271;27;45301;-71
2022/10/18 09:04:44;;;;;;;;;8.75;8.75;;;;;;;;5075670;27;46786;-75
2022/10/18 09:07:12;;;;;;;;;11.50;11.50;;;;;;;;5075702;27;45300;-74
2022/10/18 09:09:37;;;;;;;;;10.00;10.00;;;;;;;;5080815;27;45464;-73
2022/10/18 09:12:19;;;;;;;;;13.50;13.50;;;;;;;;5083310;28;45204;-72
2022/10/18 09:14:56;;;;;;;;;13.00;13.00;;;;;;;;5087145;27;45720;-70
2022/10/18 09:17:24;;;;;;;;;13.50;13.50;;;;;;;;5083717;27;45193;-71
2022/10/18 09:20:08;;;;;;;;;14.75;14.75;;;;;;;;5077383;27;45485;-74
2022/10/18 09:22:52;;;;;;;;;14.50;14.50;;;;;;;;5076072;27;45180;-76
2022/10/18 09:25:44;;;;;;;;;20.00;20.00;;;;;;;;5075761;27;46513;-71
2022/10/18 09:28:09;;;;;;;;;27.25;27.25;;;;;;;;5074120;28;45331;-72
2022/10/18 09:30:34;;;;;;;;;18.80;18.80;;;;;;;;5076314;27;45507;-74
2022/10/18 09:33:02;;;;;;;;;31.75;30.50;;;;;;;;5076740;27;45559;-75
2022/10/18 09:35:32;;;;;;;;;29.75;29.25;;;;;;;;5076294;27;45849;-77
2022/10/18 09:38:09;;;;;;;;;13.00;13.00;;;;;;;;5077140;27;45372;-75
2022/10/18 09:40:38;;;;;;;;;16.75;16.50;;;;;;;;5078872;28;45373;-73
2022/10/18 09:43:13;;;;;;;;;10.75;10.75;;;;;;;;5076757;28;45321;-72
2022/10/18 09:45:40;;;;;;;;;11.25;11.25;;;;;;;;5077479;27;45340;-74
2022/10/18 09:48:24;;;;;;;;;8.75;8.75;;;;;;;;5077966;27;45353;-72
2022/10/18 09:50:52;;;;;;;;;12.75;12.75;;;;;;;;5076685;27;45161;-73
2022/10/18 09:53:36;;;;;;;;;17.25;17.25;;;;;;;;5076572;27;45334;-73
2022/10/18 09:56:05;;;;;;;;;9.00;9.00;;;;;;;;5075270;27;46255;-73
2022/10/18 09:58:38;;;;;;;;;11.25;11.25;;;;;;;;5082855;28;45299;-73
2022/10/18 10:01:03;;;;;;;;;7.75;7.75;;;;;;;;5077389;27;45361;-73
2022/10/18 10:03:29;;;;;;;;;10.50;10.50;;;;;;;;5076167;27;45417;-72
2022/10/18 10:06:01;;;;;;;;;7.75;7.75;;;;;;;;5076263;27;46623;-72
2022/10/18 10:08:33;;;;;;;;;7.00;7.00;;;;;;;;5075914;27;45532;-78
2022/10/18 10:10:58;;;;;;;;;11.00;11.00;;;;;;;;5075837;27;45243;-79
2022/10/18 10:13:25;;;;;;;;;8.50;8.50;;;;;;;;5074705;27;45252;-73
2022/10/18 10:15:52;;;;;;;;;11.50;11.50;;;;;;;;5073542;27;46757;-73
2022/10/18 10:18:36;;;;;;;;;56.75;47.25;;;;;;;;5076335;27;45361;-73
2022/10/18 10:21:04;;;;;;;;;23.50;23.50;;;;;;;;5075948;27;45397;-72
2022/10/18 10:23:37;;;;;;;;;11.00;11.00;;;;;;;;5076818;27;45421;-77
2022/10/18 10:26:05;;;;;;;;;11.50;11.50;;;;;;;;5075831;27;47108;-71
2022/10/18 10:28:34;;;;;;;;;9.00;9.00;;;;;;;;5079368;27;45316;-69
2022/10/18 10:31:18;;;;;;;;;7.00;7.00;;;;;;;;5078893;28;45289;-75
2022/10/18 10:33:46;;;;;;;;;12.00;12.00;;;;;;;;5079207;27;45238;-72
2022/10/18 10:36:19;;;;;;;;;19.25;19.00;;;;;;;;5077580;28;45747;-73
2022/10/18 10:38:44;;;;;;;;;8.75;8.75;;;;;;;;5079031;27;45226;-75
2022/10/18 10:41:19;;;;;;;;;17.00;17.00;;;;;;;;5079359;27;45241;-75
2022/10/18 10:43:45;;;;;;;;;20.00;20.00;;;;;;;;5079742;27;45501;-75
2022/10/18 10:46:12;;;;;;;;;11.50;11.50;;;;;;;;5076373;28;46881;-75
2022/10/18 10:48:57;;;;;;;;;7.50;7.50;;;;;;;;5078776;27;45344;-74
2022/10/18 10:51:37;;;;;;;;;7.75;7.75;;;;;;;;5078904;27;45333;-74
2022/10/18 10:54:10;;;;;;;;;8.50;8.50;;;;;;;;5078593;27;45231;-78
2022/10/18 10:56:48;;;;;;;;;10.00;10.00;;;;;;;;5078938;27;45428;-76
2022/10/18 10:59:16;;;;;;;;;8.00;8.00;;;;;;;;5075780;28;68818;-74
2022/10/18 11:01:42;;;;;;;;;22.00;22.00;;;;;;;;5078329;27;45233;-73
2022/10/18 11:04:24;;;;;;;;;13.00;13.00;;;;;;;;5078737;27;45484;-74
2022/10/18 11:06:58;;;;;;;;;20.75;20.75;;;;;;;;5079116;27;45996;-77
2022/10/18 11:09:47;;;;;;;;;5.00;5.00;;;;;;;;5079172;28;45442;-70
2022/10/18 11:12:17;;;;;;;;;8.75;8.75;;;;;;;;5067158;27;45999;-78
2022/10/18 11:14:45;;;;;;;;;6.00;6.00;;;;;;;;5078065;27;45417;-73
2022/10/18 11:17:26;;;;;;;;;5.25;5.25;;;;;;;;5077092;27;46108;-75
2022/10/18 11:19:54;;;;;;;;;3.00;3.00;;;;;;;;5077458;27;45390;-73
2022/10/18 11:22:22;;;;;;;;;3.00;3.00;;;;;;;;5081154;27;45259;-73
2022/10/18 11:24:47;;;;;;;;;7.75;7.75;;;;;;;;5078756;27;45307;-74
2022/10/18 11:27:31;;;;;;;;;2.33;2.33;;;;;;;;5076257;28;46021;-72
2022/10/18 11:30:13;;;;;;;;;5.25;5.25;;;;;;;;5079419;27;45385;-71
2022/10/18 11:32:50;;;;;;;;;9.25;9.25;;;;;;;;5077842;27;45260;-71
2022/10/18 11:35:24;;;;;;;;;7.00;7.00;;;;;;;;5077934;28;45219;-71
2022/10/18 11:38:02;;;;;;;;;4.50;4.50;;;;;;;;5077275;27;46345;-72
2022/10/18 11:40:30;;;;;;;;;5.00;5.00;;;;;;;;5076599;28;45418;-71
2022/10/18 11:43:00;;;;;;;;;2.00;2.00;;;;;;;;5077139;28;45352;-71
2022/10/18 11:45:37;;;;;;;;;4.00;4.00;;;;;;;;5079476;27;45186;-73
2022/10/18 11:48:20;;;;;;;;;7.00;7.00;;;;;;;;5078300;27;46332;-77
2022/10/18 11:51:04;;;;;;;;;7.25;7.25;;;;;;;;5078579;27;45253;-73
2022/10/18 11:53:36;;;;;;;;;5.25;5.25;;;;;;;;5077021;28;45348;-70
2022/10/18 11:56:09;;;;;;;;;3.00;3.00;;;;;;;;5078017;27;45341;-76
2022/10/18 11:59:02;;;;;;;;;3.75;3.75;;;;;;;;5075690;28;47094;-72
2022/10/18 12:01:38;;;;;;;;;5.00;5.00;;;;;;;;5077790;27;45420;-74
2022/10/18 12:04:17;;;;;;;;;6.75;6.75;;;;;;;;5077417;27;45274;-75
2022/10/18 12:06:44;;;;;;;;;5.00;5.00;;;;;;;;5077603;27;45453;-73
2022/10/18 12:09:22;;;;;;;;;15.50;15.50;;;;;;;;5077627;27;45413;-74
2022/10/18 12:11:53;;;;;;;;;2.00;2.00;;;;;;;;5080590;28;45431;-74
2022/10/18 12:14:24;;;;;;;;;27.50;27.50;;;;;;;;5077255;27;45229;-76
2022/10/18 12:16:50;;;;;;;;;24.00;24.00;;;;;;;;5076961;27;45580;-71
2022/10/18 12:19:25;;;;;;;;;6.00;6.00;;;;;;;;5077188;28;45298;-71
2022/10/18 12:21:51;;;;;;;;;9.25;9.25;;;;;;;;5076991;27;45877;-75
2022/10/18 12:24:20;;;;;;;;;8.50;8.50;;;;;;;;5075695;28;45234;-73
2022/10/18 12:26:47;;;;;;;;;6.50;6.50;;;;;;;;5077985;27;45526;-73
2022/10/18 12:29:19;;;;;;;;;9.00;9.00;;;;;;;;5077395;27;46350;-72
2022/10/18 12:32:14;;;;;;;;;18.00;18.00;;;;;;;;5077575;27;45299;-78
2022/10/18 12:34:46;;;;;;;;;5.50;5.50;;;;;;;;5073026;27;45302;-74
2022/10/18 12:37:30;;;;;;;;;11.75;11.75;;;;;;;;5077253;27;45268;-74
2022/10/18 12:39:58;;;;;;;;;6.00;6.00;;;;;;;;5077471;27;45343;-76
2022/10/18 12:42:28;;;;;;;;;6.00;6.00;;;;;;;;5076878;27;45338;-77
2022/10/18 12:45:04;;;;;;;;;7.50;7.50;;;;;;;;5076533;27;45319;-75
2022/10/18 12:47:30;;;;;;;;;8.50;8.50;;;;;;;;5078516;27;45344;-71
2022/10/18 12:49:57;;;;;;;;;12.50;12.50;;;;;;;;5075931;28;45537;-72
2022/10/18 12:52:23;;;;;;;;;8.75;8.75;;;;;;;;5075595;28;45348;-70
2022/10/18 12:55:07;;;;;;;;;8.25;8.25;;;;;;;;5076349;27;45354;-71
2022/10/18 12:58:07;;;;;;;;;5.75;5.75;;;;;;;;5076626;27;45167;-73
2022/10/18 13:00:32;;;;;;;;;7.00;7.00;;;;;;;;5054011;28;46552;-68
2022/10/18 13:03:16;;;;;;;;;4.00;4.00;;;;;;;;5070580;28;45809;-70
2022/10/18 13:05:51;;;;;;;;;0.00;0.00;;;;;;;;5076100;27;45396;-70
2022/10/18 13:08:29;;;;;;;;;5.25;5.25;;;;;;;;5075879;27;45246;-75
2022/10/18 13:11:00;;;;;;;;;5.00;5.00;;;;;;;;5074345;28;47183;-69
2022/10/18 13:13:36;;;;;;;;;3.00;3.00;;;;;;;;5076125;27;45275;-73
2022/10/18 13:16:23;;;;;;;;;2.00;2.00;;;;;;;;5076625;27;45382;-72
2022/10/18 13:19:02;;;;;;;;;1.50;1.50;;;;;;;;5076325;27;45649;-71
2022/10/18 13:21:49;;;;;;;;;6.00;6.00;;;;;;;;5075911;27;46278;-72
2022/10/18 13:24:15;;;;;;;;;5.67;5.67;;;;;;;;5078082;27;45168;-77
2022/10/18 13:26:49;;;;;;;;;11.00;11.00;;;;;;;;5080888;28;45420;-75
2022/10/18 13:29:20;;;;;;;;;9.00;9.00;;;;;;;;5078717;27;45320;-75
2022/10/18 13:32:15;;;;;;;;;6.00;6.00;;;;;;;;5077180;27;47343;-76
2022/10/18 13:34:41;;;;;;;;;7.75;7.75;;;;;;;;5081062;27;45358;-76
2022/10/18 13:37:09;;;;;;;;;15.25;15.25;;;;;;;;5080061;27;45256;-79
2022/10/18 13:39:35;;;;;;;;;5.00;5.00;;;;;;;;5079119;27;45203;-71
2022/10/18 13:42:01;;;;;;;;;12.75;12.75;;;;;;;;5075591;27;45325;-73
2022/10/18 13:44:30;;;;;;;;;5.00;5.00;;;;;;;;5075174;27;45251;-71
2022/10/18 13:46:55;;;;;;;;;11.50;11.50;;;;;;;;5075347;27;45295;-74
2022/10/18 13:49:27;;;;;;;;;10.75;10.75;;;;;;;;5075526;27;45311;-74
2022/10/18 13:52:10;;;;;;;;;5.00;5.00;;;;;;;;5078845;27;46551;-74
2022/10/18 13:54:38;;;;;;;;;14.00;14.00;;;;;;;;5075958;27;45344;-70
2022/10/18 13:57:10;;;;;;;;;10.25;10.25;;;;;;;;5074331;28;45397;-73
2022/10/18 13:59:47;;;;;;;;;5.00;5.00;;;;;;;;5076051;27;45505;-76
2022/10/18 14:02:21;;;;;;;;;9.75;8.00;;;;;;;;5078030;27;46317;-76
2022/10/18 14:05:12;;;;;;;;;4.00;4.00;;;;;;;;5079233;28;45190;-76
2022/10/18 14:07:39;;;;;;;;;3.50;3.50;;;;;;;;5077554;28;45496;-74
2022/10/18 14:10:08;;;;;;;;;3.00;3.00;;;;;;;;5078537;28;45370;-74
2022/10/18 14:12:42;;;;;;;;;3.75;3.75;;;;;;;;5085435;27;47269;-78
2022/10/18 14:15:15;;;;;;;;;4.00;4.00;;;;;;;;5079730;27;45471;-73
2022/10/18 14:17:47;;;;;;;;;9.50;9.50;;;;;;;;5079060;27;45535;-79
2022/10/18 14:20:13;;;;;;;;;23.75;23.75;;;;;;;;5078527;28;45257;-77
2022/10/18 14:22:38;;;;;;;;;8.00;8.00;;;;;;;;5078945;27;46712;-76
2022/10/18 14:25:17;;;;;;;;;9.50;9.50;;;;;;;;5080780;27;45338;-72
2022/10/18 14:27:42;;;;;;;;;3.25;3.25;;;;;;;;5082739;27;45461;-76
2022/10/18 14:30:15;;;;;;;;;3.50;3.50;;;;;;;;5086782;27;45301;-73
2022/10/18 14:32:47;;;;;;;;;7.25;7.25;;;;;;;;5085040;27;45239;-76